»·PEaware :: URF130 KSNA-MMTJ

URF130 :: KSNA-MMTJ

FLIGHT INFORMATION

Flight Status: Arrived
Operator: Unknown
More flights by this operator :: More flights under this callsign
Pilot: Anonymous 24489 (24489)
Aircraft: PILATUS PC-12 EAGLE
(PC12)
More flights by this aircraft type
Origin: KSNA John Wayne-Orange Co
United States
Destination: MMTJ Gen Abelardo L Rodriguez Intl
Mexico
More flights between these airports :: More routes between these airports
Route: MUSEL8 MUSEL MZB TIJ
File this flight plan on PilotEdge
Remarks: RMK / SIMBRIEF
Altitude:
(Current/Filed)
13,000ft
Speed:
(Current/Filed)
267kts
Departed: 25-Jan-21 05:03 PM
Arrived: 25-Jan-21 05:38 PM
Distance/Time
Traveled:
87nm/0:35
Distance/Time
To Go:
Arrived

Flight Plot

Page will automatically refresh every two minutes.

Flight plan parsing failed; only flown route is shown


Map Options




Map Legend


Flown Route
Filed Route
Departure Airport
Arrival Airport
Navaid (VOR, NDB)
Fix

Horizontal Profiles

Position Reports

Time Latitude Longitude Heading Altitude Ground
Speed
25-Jan-21 16:36 33.671672 -117.867644 209 61ft 0kts
25-Jan-21 16:37 33.671672 -117.867644 209 61ft 0kts
25-Jan-21 16:38 33.671672 -117.867644 209 61ft 0kts
25-Jan-21 16:39 33.671672 -117.867644 209 61ft 0kts
25-Jan-21 16:40 33.671672 -117.867644 209 61ft 0kts
25-Jan-21 16:41 33.671672 -117.867644 209 61ft 0kts
25-Jan-21 16:42 33.671672 -117.867644 209 61ft 0kts
25-Jan-21 16:43 33.671672 -117.867644 209 61ft 0kts
25-Jan-21 16:45 33.671672 -117.867644 209 61ft 0kts
25-Jan-21 16:46 33.671672 -117.867644 209 61ft 0kts
25-Jan-21 16:47 33.671672 -117.867644 209 61ft 0kts
25-Jan-21 16:48 33.671672 -117.867644 209 61ft 0kts
25-Jan-21 16:49 33.671670 -117.867646 209 61ft 0kts
25-Jan-21 16:50 33.671666 -117.867649 208 61ft 0kts
25-Jan-21 16:51 33.671666 -117.867649 208 61ft 0kts
25-Jan-21 16:52 33.671666 -117.867649 208 61ft 0kts
25-Jan-21 16:53 33.671666 -117.867649 208 61ft 0kts
25-Jan-21 16:54 33.671666 -117.867649 208 61ft 0kts
25-Jan-21 16:55 33.671607 -117.867804 294 61ft 2kts
25-Jan-21 16:56 33.673314 -117.866993 19 61ft 7kts
25-Jan-21 16:57 33.675206 -117.866408 27 61ft 3kts
25-Jan-21 16:58 33.678084 -117.864607 28 61ft 16kts
25-Jan-21 16:59 33.679941 -117.863681 291 61ft 0kts
25-Jan-21 16:59 33.679943 -117.863687 291 61ft 0kts
25-Jan-21 17:00 33.680432 -117.864751 296 61ft 0kts
25-Jan-21 17:01 33.680447 -117.864784 299 61ft 2kts
25-Jan-21 17:02 33.666681 -117.874231 211 285ft 122kts
25-Jan-21 17:03 33.632886 -117.890212 201 2037ft 151kts
25-Jan-21 17:05 33.583855 -117.910158 206 4277ft 176kts
25-Jan-21 17:05 33.543270 -117.926720 205 5504ft 203kts
25-Jan-21 17:06 33.488750 -117.948146 203 7254ft 210kts
25-Jan-21 17:07 33.434643 -117.917732 140 8825ft 238kts
25-Jan-21 17:08 33.383008 -117.863077 140 9819ft 259kts
25-Jan-21 17:09 33.328304 -117.804576 140 10675ft 265kts
25-Jan-21 17:10 33.272805 -117.745247 140 11493ft 270kts
25-Jan-21 17:11 33.216456 -117.685110 140 12297ft 273kts
25-Jan-21 17:12 33.159048 -117.623920 141 12958ft 280kts
25-Jan-21 17:13 33.099364 -117.560457 141 13037ft 291kts
25-Jan-21 17:14 33.038143 -117.495486 141 13038ft 296kts
25-Jan-21 17:15 32.982010 -117.436021 141 13034ft 297kts
25-Jan-21 17:16 32.919732 -117.370178 142 12928ft 298kts
25-Jan-21 17:17 32.857812 -117.304877 142 12947ft 297kts
25-Jan-21 17:18 32.795954 -117.239740 142 12981ft 297kts
25-Jan-21 17:19 32.735316 -117.172527 139 12997ft 298kts
25-Jan-21 17:20 32.675303 -117.104455 140 12997ft 298kts
25-Jan-21 17:21 32.617677 -117.039421 141 11517ft 273kts
25-Jan-21 17:22 32.561217 -116.975933 141 8678ft 284kts
25-Jan-21 17:23 32.516798 -116.901339 105 5993ft 276kts
25-Jan-21 17:24 32.500259 -116.820217 103 5034ft 241kts
25-Jan-21 17:25 32.488227 -116.747728 84 4459ft 229kts
25-Jan-21 17:26 32.478340 -116.675719 152 3049ft 211kts
25-Jan-21 17:27 32.439267 -116.674308 232 3013ft 121kts
25-Jan-21 17:28 32.437765 -116.707060 298 2989ft 117kts
25-Jan-21 17:29 32.459390 -116.740405 301 2996ft 125kts
25-Jan-21 17:30 32.474633 -116.773746 290 2994ft 109kts
25-Jan-21 17:31 32.485843 -116.803418 290 2997ft 108kts
25-Jan-21 17:32 32.498204 -116.836382 290 2655ft 113kts
25-Jan-21 17:33 32.511646 -116.871877 292 1976ft 118kts
25-Jan-21 17:34 32.524640 -116.902810 291 1407ft 100kts
25-Jan-21 17:35 32.532808 -116.929656 287 997ft 83kts
25-Jan-21 17:36 32.538892 -116.953994 280 542ft 77kts
25-Jan-21 17:37 32.540839 -116.968543 277 494ft 20kts
25-Jan-21 17:38 32.543401 -116.974370 15 494ft 18kts
25-Jan-21 17:39 32.545664 -116.978947 302 494ft 22kts
25-Jan-21 17:40 32.545779 -116.979392 212 494ft 0kts
25-Jan-21 17:41 32.544214 -116.980009 242 494ft 6kts
25-Jan-21 17:42 32.544091 -116.984629 269 494ft 21kts
25-Jan-21 17:43 32.543094 -116.984771 102 494ft 0kts
25-Jan-21 17:44 32.539323 -116.956679 101 869ft 150kts
25-Jan-21 17:45 32.533164 -116.904053 64 2217ft 163kts
25-Jan-21 17:46 32.554182 -116.846452 55 4135ft 212kts
25-Jan-21 17:47 32.587750 -116.786188 48 6059ft 219kts
25-Jan-21 17:48 32.620065 -116.725599 58 8332ft 220kts
25-Jan-21 17:49 32.646108 -116.659925 43 10498ft 220kts
25-Jan-21 17:50 32.684231 -116.600598 42 12311ft 230kts

Navigation Log

Ident Type
Flight plan parsing failed, navigation log unavailable